Terminal Aerodrome Forecast
Issued by NWS

Home | Current Version | Previous Version | Text Only | Print | Product List | Glossary On
Versions: 1 2 3 4 5 6 7 8 9 10 11 12 13 14 15 16 17
000
FTUS43 KDVN 201400 AAA
TAFCID
TAF AMD
KCID 201459Z 2015/2112 23007KT P6SM -RA VCTS BKN050CB OVC150
     FM201900 19007KT P6SM SCT050
     FM210200 15003KT P6SM VCTS FEW050CB BKN120=

USA.gov is the U.S. government's official web portal to all federal, state and local government web resources and services.